Time;durP1;ratioP1;P1;durP2;ratioP2;P2;SDS_P1;SDS_P2;PMS_P1;PMS_P2;Temp;Humidity;BMP_temperature;BMP_pressure;BME280_temperature;BME280_humidity;BME280_pressure;Samples;Min_cycle;Max_cycle;Signal;HPM_P1;HPM_P2
2021/07/14 00:01:43;;;;;;;10.90;4.03;;;14.10;99.90;;;;;;6197937;28;20081;-75
2021/07/14 00:04:44;;;;;;;10.18;5.43;;;14.10;99.90;;;;;;6197260;28;20121;-75
2021/07/14 00:07:48;;;;;;;5.50;5.00;;;14.10;99.90;;;;;;6196638;28;20504;-75
2021/07/14 00:10:50;;;;;;;7.20;4.55;;;14.10;99.90;;;;;;6171462;28;20061;-75
2021/07/14 00:14:04;;;;;;;4.07;3.60;;;14.00;99.90;;;;;;6153874;29;20186;-75
2021/07/14 00:17:21;;;;;;;5.25;4.35;;;14.00;99.90;;;;;;6178041;28;20051;-75
2021/07/14 00:23:44;;;;;;;8.82;5.43;;;13.90;99.90;;;;;;6178178;28;20058;-75
2021/07/14 00:26:46;;;;;;;10.05;4.78;;;13.90;99.90;;;;;;6177531;28;20042;-75
2021/07/14 00:29:51;;;;;;;8.23;5.90;;;13.90;99.90;;;;;;6178297;28;20082;-75
2021/07/14 00:32:53;;;;;;;5.00;4.22;;;13.90;99.90;;;;;;6177879;28;20051;-75
2021/07/14 00:35:57;;;;;;;9.23;5.13;;;13.90;99.90;;;;;;6177344;28;20129;-75
2021/07/14 00:39:00;;;;;;;7.45;5.57;;;13.80;99.90;;;;;;6177371;28;20150;-75
2021/07/14 00:42:02;;;;;;;10.70;5.38;;;13.80;99.90;;;;;;6177489;28;20125;-74
2021/07/14 00:45:05;;;;;;;6.95;4.47;;;13.80;99.90;;;;;;6178043;28;20129;-75
2021/07/14 00:48:08;;;;;;;6.30;5.40;;;13.80;99.90;;;;;;6176903;28;20042;-75
2021/07/14 00:51:10;;;;;;;8.20;5.10;;;13.80;99.90;;;;;;6178489;28;20047;-74
2021/07/14 00:54:14;;;;;;;6.90;4.50;;;13.90;99.90;;;;;;6179777;28;20567;-75
2021/07/14 00:57:18;;;;;;;10.07;5.35;;;13.90;99.90;;;;;;6177425;28;20186;-75
2021/07/14 01:00:20;;;;;;;6.82;5.20;;;13.90;99.90;;;;;;6176953;28;20418;-75
2021/07/14 01:03:26;;;;;;;5.75;5.13;;;13.90;99.90;;;;;;6176856;28;20573;-75
2021/07/14 01:06:38;;;;;;;9.07;5.05;;;13.90;99.90;;;;;;6177235;28;20049;-75
2021/07/14 01:09:48;;;;;;;5.97;5.43;;;13.90;99.90;;;;;;6177072;28;20081;-75
2021/07/14 01:13:01;;;;;;;7.85;5.30;;;13.80;99.90;;;;;;6176867;28;20057;-75
2021/07/14 01:16:06;;;;;;;7.25;5.60;;;13.80;99.90;;;;;;6176333;28;20058;-75
2021/07/14 01:19:34;;;;;;;12.35;6.05;;;13.80;99.90;;;;;;6176476;28;20530;-75
2021/07/14 01:22:46;;;;;;;5.70;5.20;;;13.80;99.90;;;;;;6176469;28;20126;-75
2021/07/14 01:25:59;;;;;;;9.63;6.68;;;14.00;99.90;;;;;;6176490;28;20046;-75
2021/07/14 01:29:06;;;;;;;6.05;5.50;;;13.90;99.90;;;;;;6176728;28;20179;-75
2021/07/14 01:32:09;;;;;;;8.40;5.55;;;13.90;99.90;;;;;;6176444;28;20133;-75
2021/07/14 01:35:17;;;;;;;7.25;5.38;;;13.90;99.90;;;;;;6176314;28;20108;-74
2021/07/14 01:38:20;;;;;;;7.77;6.30;;;14.00;99.90;;;;;;6176058;28;20050;-75
2021/07/14 01:41:25;;;;;;;9.07;6.10;;;14.00;99.90;;;;;;6176874;28;20432;-75
2021/07/14 01:44:29;;;;;;;7.35;6.57;;;14.00;99.90;;;;;;6176133;28;20120;-75
2021/07/14 01:47:34;;;;;;;7.43;5.53;;;14.00;99.90;;;;;;6175792;28;20532;-75
2021/07/14 01:50:37;;;;;;;6.88;6.25;;;14.00;99.90;;;;;;6177036;28;20049;-75
2021/07/14 01:53:39;;;;;;;7.85;6.68;;;14.10;99.90;;;;;;6176387;28;20074;-75
2021/07/14 01:56:41;;;;;;;8.95;5.70;;;14.10;99.90;;;;;;6175375;28;20039;-75
2021/07/14 01:59:48;;;;;;;10.57;6.30;;;14.20;99.90;;;;;;6175585;28;20051;-75
2021/07/14 02:02:54;;;;;;;9.85;6.45;;;14.20;99.90;;;;;;6175693;28;20046;-75
2021/07/14 02:05:59;;;;;;;9.73;7.82;;;14.20;99.90;;;;;;6175742;28;20042;-75
2021/07/14 02:09:01;;;;;;;15.25;7.55;;;14.20;99.90;;;;;;6189724;23;20051;-76
2021/07/14 02:12:05;;;;;;;10.32;7.13;;;14.20;99.90;;;;;;6175691;28;20054;-76
2021/07/14 02:15:11;;;;;;;8.80;7.90;;;14.30;99.90;;;;;;6175302;28;20170;-76
2021/07/14 02:18:15;;;;;;;9.40;7.45;;;14.30;99.90;;;;;;6174815;28;20196;-76
2021/07/14 02:21:17;;;;;;;8.55;7.85;;;14.40;99.90;;;;;;6175855;28;20118;-76
2021/07/14 02:24:19;;;;;;;12.10;7.75;;;14.40;99.90;;;;;;6157046;28;20122;-76
2021/07/14 02:27:20;;;;;;;9.27;7.35;;;14.50;99.90;;;;;;6150841;29;20062;-76
2021/07/14 02:30:24;;;;;;;7.20;6.50;;;14.50;99.90;;;;;;6150954;29;20090;-76
2021/07/14 02:33:27;;;;;;;10.35;6.65;;;14.50;99.90;;;;;;6151634;29;20047;-76
2021/07/14 02:36:32;;;;;;;9.23;7.20;;;14.60;99.90;;;;;;6149665;28;20051;-76
2021/07/14 02:39:36;;;;;;;6.93;6.32;;;14.60;99.90;;;;;;6150925;29;20047;-76
2021/07/14 02:42:41;;;;;;;8.60;7.70;;;14.70;99.90;;;;;;6151059;29;20066;-76
2021/07/14 02:45:47;;;;;;;10.65;6.75;;;14.70;99.90;;;;;;6150617;29;20632;-76
2021/07/14 02:48:52;;;;;;;12.30;8.10;;;14.70;99.90;;;;;;6150576;29;20421;-76
2021/07/14 02:51:55;;;;;;;7.53;6.82;;;14.70;99.90;;;;;;6150425;29;20050;-76
2021/07/14 02:54:58;;;;;;;7.35;6.65;;;14.70;99.90;;;;;;6150442;29;20043;-76
2021/07/14 02:58:02;;;;;;;10.93;6.82;;;14.70;99.90;;;;;;6150456;29;20134;-76
2021/07/14 03:01:06;;;;;;;7.45;6.40;;;14.70;99.90;;;;;;6150608;29;20313;-76
2021/07/14 03:04:10;;;;;;;9.07;6.82;;;14.70;99.90;;;;;;6167486;28;20081;-76
2021/07/14 03:07:12;;;;;;;10.00;6.45;;;14.70;99.90;;;;;;6174021;28;20050;-76
2021/07/14 03:10:18;;;;;;;7.97;6.55;;;14.70;99.90;;;;;;6173908;28;20148;-76
2021/07/14 03:13:20;;;;;;;8.93;6.53;;;14.70;99.90;;;;;;6174315;28;20496;-76
2021/07/14 03:16:24;;;;;;;19.40;6.78;;;14.60;99.90;;;;;;6173657;28;20146;-76
2021/07/14 03:19:27;;;;;;;8.60;6.28;;;14.60;99.90;;;;;;6173812;28;20412;-76
2021/07/14 03:22:29;;;;;;;8.80;6.97;;;14.60;99.90;;;;;;6173746;28;20043;-76
2021/07/14 03:25:31;;;;;;;14.77;6.22;;;14.60;99.90;;;;;;6174539;28;20133;-76
2021/07/14 03:28:34;;;;;;;9.68;8.25;;;14.50;99.90;;;;;;6173411;28;20572;-76
2021/07/14 03:31:38;;;;;;;8.80;6.30;;;14.50;99.90;;;;;;6173599;28;20046;-75
2021/07/14 03:34:40;;;;;;;7.95;7.15;;;14.50;99.90;;;;;;6173637;28;20046;-75
2021/07/14 03:37:43;;;;;;;10.00;6.93;;;14.50;99.90;;;;;;6173580;28;20761;-75
2021/07/14 03:40:45;;;;;;;8.52;6.63;;;14.50;99.90;;;;;;6173609;28;20130;-75
2021/07/14 03:43:48;;;;;;;7.90;7.20;;;14.50;99.90;;;;;;6173215;28;20537;-75
2021/07/14 03:46:52;;;;;;;8.25;7.43;;;14.50;99.90;;;;;;6173240;28;20070;-75
2021/07/14 03:49:56;;;;;;;9.80;7.03;;;14.50;99.90;;;;;;6174057;28;20137;-75
2021/07/14 03:52:58;;;;;;;11.75;6.95;;;14.50;99.90;;;;;;6173656;28;20057;-75
2021/07/14 03:56:00;;;;;;;10.70;7.47;;;14.50;99.90;;;;;;6172925;28;20504;-75
2021/07/14 03:59:03;;;;;;;8.43;6.70;;;14.50;99.90;;;;;;6173278;28;20126;-75
2021/07/14 04:02:07;;;;;;;7.20;6.60;;;14.60;99.90;;;;;;6173254;28;20137;-75
2021/07/14 04:05:10;;;;;;;9.95;6.70;;;14.60;99.90;;;;;;6173580;28;20050;-75
2021/07/14 04:08:13;;;;;;;10.50;7.15;;;14.60;99.90;;;;;;6172862;28;20051;-75
2021/07/14 04:11:16;;;;;;;10.10;8.27;;;14.70;99.90;;;;;;6173103;28;20051;-75
2021/07/14 04:14:18;;;;;;;9.75;7.28;;;14.70;99.90;;;;;;6173204;28;20073;-75
2021/07/14 04:17:21;;;;;;;9.60;8.60;;;14.70;99.90;;;;;;6173040;28;20538;-75
2021/07/14 04:20:23;;;;;;;12.07;10.07;;;14.80;99.90;;;;;;6173091;28;20520;-75
2021/07/14 04:23:25;;;;;;;13.80;8.43;;;14.80;99.90;;;;;;6173093;28;20094;-75
2021/07/14 04:26:27;;;;;;;9.80;8.80;;;14.80;99.90;;;;;;6172965;28;20125;-75
2021/07/14 04:29:29;;;;;;;14.93;7.80;;;14.90;99.90;;;;;;6197139;28;20060;-75
2021/07/14 04:32:32;;;;;;;9.88;7.15;;;14.90;99.90;;;;;;6196987;28;20120;-75
2021/07/14 04:35:34;;;;;;;10.68;7.43;;;14.90;99.90;;;;;;6196793;28;20046;-75
2021/07/14 04:38:36;;;;;;;7.97;7.18;;;14.90;99.90;;;;;;6196969;28;20120;-75
2021/07/14 04:41:38;;;;;;;9.95;7.03;;;14.90;99.90;;;;;;6197548;28;20089;-75
2021/07/14 04:44:49;;;;;;;11.57;7.43;;;15.00;99.90;;;;;;6196768;28;20042;-75
2021/07/14 04:47:52;;;;;;;9.77;7.18;;;15.10;99.90;;;;;;6196545;28;20046;-75
2021/07/14 04:50:54;;;;;;;10.43;7.57;;;15.10;99.90;;;;;;6196714;28;20137;-75
2021/07/14 04:53:56;;;;;;;8.15;6.97;;;15.20;99.90;;;;;;6197211;28;20050;-75
2021/07/14 04:56:58;;;;;;;11.48;7.38;;;15.20;99.90;;;;;;6196210;28;20125;-75
2021/07/14 05:00:00;;;;;;;11.85;7.13;;;15.20;99.90;;;;;;6200365;28;20120;-75
2021/07/14 05:03:04;;;;;;;8.90;7.53;;;15.30;99.90;;;;;;6201058;28;20132;-75
2021/07/14 05:06:05;;;;;;;12.15;6.13;;;15.30;99.90;;;;;;6201024;28;20178;-75
2021/07/14 05:09:07;;;;;;;9.98;7.15;;;15.40;99.90;;;;;;6201144;28;20209;-75
2021/07/14 05:12:09;;;;;;;14.25;6.60;;;15.40;99.90;;;;;;6200793;28;20050;-75
2021/07/14 05:15:12;;;;;;;10.32;6.72;;;15.50;99.90;;;;;;6200787;28;20128;-75
2021/07/14 05:18:15;;;;;;;6.32;5.68;;;15.60;99.90;;;;;;6200655;28;20129;-75
2021/07/14 05:21:17;;;;;;;8.65;6.32;;;15.60;99.90;;;;;;6200905;28;20078;-75
2021/07/14 05:24:19;;;;;;;10.60;5.45;;;15.70;99.90;;;;;;6200885;28;20455;-75
2021/07/14 05:27:21;;;;;;;10.23;5.53;;;15.70;99.90;;;;;;6200220;28;20053;-75
2021/07/14 05:30:23;;;;;;;7.03;4.95;;;15.80;99.90;;;;;;6200195;28;20957;-75
2021/07/14 05:33:26;;;;;;;4.85;4.38;;;15.80;99.90;;;;;;6200650;28;20556;-75
2021/07/14 05:36:27;;;;;;;10.75;5.75;;;15.80;99.90;;;;;;6200124;28;20077;-76
2021/07/14 05:39:29;;;;;;;6.40;5.18;;;15.90;99.90;;;;;;6200188;28;20587;-75
2021/07/14 05:42:31;;;;;;;8.30;5.90;;;16.00;99.90;;;;;;6200094;28;20042;-76
2021/07/14 05:45:33;;;;;;;9.63;5.38;;;16.00;99.90;;;;;;6200778;28;20050;-75
2021/07/14 05:48:36;;;;;;;8.77;4.65;;;16.10;99.90;;;;;;6199981;28;20108;-76
2021/07/14 05:51:38;;;;;;;7.35;5.25;;;16.20;99.90;;;;;;6200315;28;20042;-75
2021/07/14 05:54:40;;;;;;;5.53;5.03;;;16.20;99.90;;;;;;6200056;28;20129;-75
2021/07/14 05:57:42;;;;;;;6.93;4.50;;;16.20;99.90;;;;;;6199731;28;20504;-75
2021/07/14 06:00:44;;;;;;;7.70;4.68;;;16.30;99.90;;;;;;6199487;28;20042;-75
2021/07/14 06:03:48;;;;;;;11.80;5.07;;;16.40;99.90;;;;;;6196314;28;20054;-75
2021/07/14 06:06:49;;;;;;;9.57;4.65;;;16.40;99.90;;;;;;6184397;28;20069;-75
2021/07/14 06:09:51;;;;;;;5.53;4.30;;;16.50;99.90;;;;;;6186359;28;20186;-75
2021/07/14 06:12:56;;;;;;;4.43;3.97;;;16.60;99.90;;;;;;6177347;28;20193;-76
2021/07/14 06:15:58;;;;;;;6.57;4.28;;;16.80;99.90;;;;;;6198970;28;20053;-75
2021/07/14 06:19:01;;;;;;;9.68;4.28;;;16.80;99.90;;;;;;6199415;28;20046;-75
2021/07/14 06:22:03;;;;;;;5.05;3.85;;;16.90;99.90;;;;;;6192068;28;20079;-75
2021/07/14 06:25:06;;;;;;;4.30;3.85;;;17.00;99.90;;;;;;6175760;28;20050;-75
2021/07/14 06:28:12;;;;;;;9.45;4.07;;;17.00;99.90;;;;;;6174550;28;20054;-76
2021/07/14 06:31:14;;;;;;;5.72;3.92;;;17.00;99.90;;;;;;6175103;28;20042;-75
2021/07/14 06:34:17;;;;;;;7.25;4.03;;;17.00;99.90;;;;;;6174837;28;20397;-75
2021/07/14 06:37:19;;;;;;;5.82;4.00;;;17.00;99.90;;;;;;6174919;28;20142;-76
2021/07/14 06:40:21;;;;;;;8.20;4.65;;;17.10;99.90;;;;;;6191572;28;20467;-75
2021/07/14 06:43:31;;;;;;;7.40;4.57;;;17.10;99.90;;;;;;6197977;28;20507;-76
2021/07/14 06:46:33;;;;;;;7.57;4.88;;;17.20;99.90;;;;;;6198797;28;20049;-76
2021/07/14 06:49:36;;;;;;;6.35;3.67;;;17.20;99.90;;;;;;6199246;28;20054;-76
2021/07/14 06:52:39;;;;;;;8.50;3.70;;;17.30;99.90;;;;;;6198554;28;20046;-76
2021/07/14 06:55:41;;;;;;;4.25;3.38;;;17.30;99.90;;;;;;6198113;28;20054;-75
2021/07/14 06:58:42;;;;;;;6.00;3.00;;;17.30;99.90;;;;;;6198179;28;20132;-76
2021/07/14 07:01:44;;;;;;;6.53;3.10;;;17.30;99.90;;;;;;6198598;28;20592;-76
2021/07/14 07:04:47;;;;;;;3.72;3.42;;;17.40;99.90;;;;;;6198448;28;20133;-75
2021/07/14 07:07:49;;;;;;;4.35;3.95;;;17.40;99.90;;;;;;6197683;28;20082;-76
2021/07/14 07:10:51;;;;;;;3.55;3.25;;;17.40;99.90;;;;;;6198121;28;20405;-76
2021/07/14 07:13:53;;;;;;;4.82;2.80;;;17.40;99.90;;;;;;6186152;28;20112;-76
2021/07/14 07:16:54;;;;;;;4.30;3.47;;;17.50;99.90;;;;;;6173612;28;20129;-76
2021/07/14 07:19:58;;;;;;;4.65;2.97;;;17.50;99.90;;;;;;6173668;28;20050;-76
2021/07/14 07:22:59;;;;;;;7.40;3.55;;;17.50;99.90;;;;;;6173645;28;20070;-76
2021/07/14 07:26:01;;;;;;;7.88;4.45;;;17.50;99.90;;;;;;6173560;28;20496;-76
2021/07/14 07:29:04;;;;;;;4.43;3.65;;;17.50;99.90;;;;;;6173948;28;20054;-76
2021/07/14 07:32:07;;;;;;;3.50;2.90;;;17.50;99.90;;;;;;6173962;28;20149;-76
2021/07/14 07:35:12;;;;;;;4.28;3.50;;;17.60;99.90;;;;;;6173500;28;20468;-76
2021/07/14 07:38:14;;;;;;;4.68;4.05;;;17.50;99.90;;;;;;6173282;28;20768;-76
2021/07/14 07:41:16;;;;;;;6.18;4.53;;;17.60;99.90;;;;;;6173832;28;20054;-76
2021/07/14 07:44:18;;;;;;;7.25;3.92;;;17.60;99.90;;;;;;6173811;28;20098;-76
2021/07/14 07:47:20;;;;;;;6.43;3.00;;;17.60;99.90;;;;;;6173049;28;20090;-76
2021/07/14 07:50:23;;;;;;;5.15;3.55;;;17.70;99.90;;;;;;6138244;28;20506;-76
2021/07/14 07:53:25;;;;;;;9.50;3.97;;;17.70;99.90;;;;;;6172618;28;20464;-76
2021/07/14 07:56:27;;;;;;;7.38;4.90;;;17.70;99.90;;;;;;6172889;28;20145;-76
2021/07/14 07:59:29;;;;;;;7.93;3.97;;;17.70;99.90;;;;;;6173410;28;20046;-76
2021/07/14 08:02:31;;;;;;;4.82;3.33;;;17.70;99.90;;;;;;6173306;28;20051;-75
2021/07/14 08:05:34;;;;;;;5.40;4.20;;;17.80;99.90;;;;;;6173771;28;20185;-76
2021/07/14 08:08:36;;;;;;;4.32;3.92;;;17.80;99.90;;;;;;6199591;23;20125;-74
2021/07/14 08:11:39;;;;;;;4.47;3.65;;;17.90;99.90;;;;;;6197810;28;20583;-74
2021/07/14 08:14:41;;;;;;;6.85;4.03;;;17.90;99.90;;;;;;6197406;28;20066;-74
2021/07/14 08:17:42;;;;;;;8.88;4.32;;;17.90;99.90;;;;;;6197901;28;20141;-75
2021/07/14 08:20:46;;;;;;;4.20;3.88;;;18.00;99.90;;;;;;6197670;28;20054;-74
2021/07/14 08:23:48;;;;;;;4.28;3.95;;;18.00;99.90;;;;;;6197700;28;20057;-74
2021/07/14 08:26:50;;;;;;;8.02;4.35;;;17.90;99.90;;;;;;6197586;28;20534;-74
2021/07/14 08:29:52;;;;;;;4.60;3.90;;;17.90;99.90;;;;;;6197991;28;20495;-74
2021/07/14 08:32:54;;;;;;;8.05;4.45;;;17.90;99.90;;;;;;6198117;28;20124;-74
2021/07/14 08:35:57;;;;;;;5.22;4.38;;;18.00;99.90;;;;;;6198993;28;20055;-74
2021/07/14 08:38:59;;;;;;;8.75;4.93;;;18.00;99.90;;;;;;6202153;28;20086;-74
2021/07/14 08:42:02;;;;;;;5.07;4.30;;;18.00;99.90;;;;;;6201972;28;20054;-75
2021/07/14 08:45:07;;;;;;;9.95;4.32;;;18.00;99.90;;;;;;6202682;28;20054;-74
2021/07/14 08:48:09;;;;;;;5.93;5.00;;;18.00;99.90;;;;;;6201571;28;20154;-75
2021/07/14 08:51:15;;;;;;;6.57;4.88;;;18.00;99.90;;;;;;6202002;28;20050;-75
2021/07/14 08:54:17;;;;;;;6.47;5.20;;;18.00;99.90;;;;;;6201872;28;20054;-75
2021/07/14 08:57:19;;;;;;;5.78;4.80;;;18.00;99.90;;;;;;6201972;28;20180;-74
2021/07/14 09:00:24;;;;;;;4.95;4.47;;;18.00;99.90;;;;;;6201400;28;20073;-75
2021/07/14 09:03:28;;;;;;;10.77;4.93;;;17.90;99.90;;;;;;6201766;28;20046;-74
2021/07/14 09:06:31;;;;;;;5.55;5.05;;;17.90;99.90;;;;;;6201140;28;20065;-75
2021/07/14 09:09:35;;;;;;;6.20;4.85;;;17.90;99.90;;;;;;6201765;28;20050;-74
2021/07/14 09:12:38;;;;;;;5.03;4.63;;;17.80;99.90;;;;;;6199068;28;20050;-75
2021/07/14 09:15:42;;;;;;;5.10;4.70;;;17.90;99.90;;;;;;6177152;28;20130;-74
2021/07/14 09:18:44;;;;;;;6.35;5.70;;;17.90;99.90;;;;;;6176838;28;20081;-75
2021/07/14 09:21:48;;;;;;;6.07;5.40;;;17.90;99.90;;;;;;6177671;28;20145;-75
2021/07/14 09:24:50;;;;;;;11.45;5.43;;;18.00;99.90;;;;;;6176808;28;20059;-75
2021/07/14 09:27:56;;;;;;;8.23;5.03;;;18.00;99.90;;;;;;6176756;28;20043;-75
2021/07/14 09:31:00;;;;;;;6.20;4.18;;;18.10;99.90;;;;;;6176781;28;20130;-75
2021/07/14 09:34:02;;;;;;;5.20;4.70;;;18.10;99.90;;;;;;6176771;28;20098;-74
2021/07/14 09:37:05;;;;;;;7.18;5.75;;;18.20;99.90;;;;;;6176548;28;20120;-74
2021/07/14 09:40:15;;;;;;;6.90;4.90;;;18.20;99.90;;;;;;6176555;28;20078;-74
2021/07/14 09:43:18;;;;;;;5.03;4.53;;;18.20;99.90;;;;;;6176506;28;20050;-74
2021/07/14 09:46:20;;;;;;;7.00;4.30;;;18.20;99.90;;;;;;6175889;28;20551;-74
2021/07/14 09:49:22;;;;;;;6.07;5.13;;;18.30;99.90;;;;;;6177003;28;20130;-74
2021/07/14 09:52:25;;;;;;;4.75;3.92;;;18.30;99.90;;;;;;6175212;28;20057;-74
2021/07/14 09:55:29;;;;;;;5.07;4.57;;;18.40;99.90;;;;;;6192702;28;20133;-74
2021/07/14 09:58:32;;;;;;;5.00;3.88;;;18.50;99.90;;;;;;6174974;28;20043;-75
2021/07/14 10:01:36;;;;;;;6.35;4.55;;;18.50;99.90;;;;;;6176352;28;20094;-74
2021/07/14 10:04:40;;;;;;;6.43;4.07;;;18.60;99.90;;;;;;6175261;28;20062;-75
2021/07/14 10:07:43;;;;;;;7.22;4.90;;;18.60;99.90;;;;;;6175378;28;20507;-74
2021/07/14 10:10:45;;;;;;;7.57;5.70;;;18.70;99.90;;;;;;6175393;28;20538;-74
2021/07/14 10:13:53;;;;;;;4.88;4.28;;;18.70;99.90;;;;;;6187318;28;20185;-75
2021/07/14 10:16:55;;;;;;;7.05;4.32;;;18.70;99.90;;;;;;6198770;28;20077;-74
2021/07/14 10:19:56;;;;;;;5.32;4.82;;;18.70;99.90;;;;;;6198677;28;20516;-74
2021/07/14 10:23:03;;;;;;;6.05;5.05;;;18.80;99.90;;;;;;6199162;28;20516;-74
2021/07/14 10:26:05;;;;;;;4.40;3.97;;;18.80;99.90;;;;;;6198360;28;20133;-74
2021/07/14 10:29:07;;;;;;;4.60;4.20;;;18.90;99.90;;;;;;6197121;28;20452;-75
2021/07/14 10:32:11;;;;;;;5.38;4.57;;;19.00;99.90;;;;;;6198552;28;20133;-75
2021/07/14 10:35:15;;;;;;;5.95;5.03;;;19.00;99.90;;;;;;6198422;28;20069;-73
2021/07/14 10:38:20;;;;;;;8.48;4.03;;;19.10;99.90;;;;;;6198184;28;20128;-74
2021/07/14 10:41:23;;;;;;;7.18;4.22;;;19.20;99.90;;;;;;6198569;28;20129;-75
2021/07/14 10:44:25;;;;;;;6.18;4.38;;;19.40;99.90;;;;;;6198325;28;20714;-75
2021/07/14 10:47:27;;;;;;;5.05;4.60;;;19.50;99.90;;;;;;6198248;28;20042;-74
2021/07/14 10:50:31;;;;;;;4.68;4.22;;;19.60;99.90;;;;;;6198191;28;20069;-74
2021/07/14 10:53:35;;;;;;;8.63;4.93;;;19.70;99.90;;;;;;6198970;28;20056;-75
2021/07/14 10:56:42;;;;;;;4.55;4.15;;;19.80;99.90;;;;;;6193178;28;20619;-74
2021/07/14 10:59:46;;;;;;;5.82;3.42;;;20.00;99.90;;;;;;6198075;28;20053;-75
2021/07/14 11:02:49;;;;;;;7.65;5.68;;;20.00;99.90;;;;;;6198162;28;20061;-75
2021/07/14 11:05:50;;;;;;;9.50;4.32;;;20.20;99.90;;;;;;6198282;28;20089;-75
2021/07/14 11:08:54;;;;;;;4.20;3.40;;;20.30;99.90;;;;;;6197404;28;20043;-75
2021/07/14 11:11:57;;;;;;;2.90;2.65;;;20.40;99.90;;;;;;6197569;28;20103;-74
2021/07/14 11:15:01;;;;;;;3.53;3.22;;;20.50;99.90;;;;;;6197591;28;20054;-76
2021/07/14 11:18:36;;;;;;;5.50;3.58;;;20.70;99.90;;;;;;6196973;28;20260;-74
2021/07/14 11:21:56;;;;;;;3.80;3.10;;;20.80;99.80;;;;;;6198082;28;20116;-75
2021/07/14 11:24:59;;;;;;;4.03;2.88;;;21.00;98.10;;;;;;6197264;28;20427;-75
2021/07/14 11:28:08;;;;;;;3.70;2.58;;;21.10;96.80;;;;;;6197059;28;20046;-74
2021/07/14 11:31:11;;;;;;;7.45;2.85;;;21.30;95.90;;;;;;6197106;28;20046;-74
2021/07/14 11:34:29;;;;;;;13.30;4.60;;;21.30;94.90;;;;;;6196879;28;20051;-74
2021/07/14 11:37:32;;;;;;;;;;;21.40;95.00;;;;;;6197842;28;20053;-74
2021/07/14 11:40:41;;;;;;;3.50;3.20;;;21.40;94.50;;;;;;6197023;28;19967;-75
2021/07/14 11:43:44;;;;;;;3.78;3.10;;;21.30;94.30;;;;;;6197542;28;20050;-75
2021/07/14 11:46:47;;;;;;;5.47;2.58;;;21.30;94.40;;;;;;6196770;28;20057;-75
2021/07/14 11:49:49;;;;;;;3.42;2.65;;;21.40;94.10;;;;;;6197946;28;20047;-75
2021/07/14 11:52:51;;;;;;;2.47;2.28;;;21.40;93.60;;;;;;6196960;28;20052;-75
2021/07/14 11:55:59;;;;;;;4.68;2.75;;;21.50;93.60;;;;;;6193739;28;20136;-74
2021/07/14 11:59:12;;;;;;;4.22;2.13;;;21.60;93.30;;;;;;6186176;28;20419;-74
2021/07/14 12:02:20;;;;;;;2.97;2.45;;;21.70;92.10;;;;;;6197091;28;20137;-75
2021/07/14 12:05:30;;;;;;;3.38;2.70;;;21.70;91.00;;;;;;6197710;28;20181;-74
2021/07/14 12:08:38;;;;;;;6.00;2.28;;;21.60;90.60;;;;;;6201454;28;20062;-75
2021/07/14 12:11:41;;;;;;;11.70;2.05;;;21.70;90.80;;;;;;6202610;28;20046;-75
2021/07/14 12:14:45;;;;;;;4.70;3.05;;;21.70;90.60;;;;;;6202623;28;20074;-74
2021/07/14 12:17:46;;;;;;;5.47;2.17;;;21.70;91.00;;;;;;6202742;28;20046;-74
2021/07/14 12:20:49;;;;;;;7.25;2.22;;;21.80;90.90;;;;;;6201745;28;20178;-76
2021/07/14 12:23:50;;;;;;;4.97;2.60;;;21.90;91.20;;;;;;6202304;28;20053;-74
2021/07/14 12:27:06;;;;;;;4.00;2.67;;;22.00;90.60;;;;;;6200937;28;20125;-76
2021/07/14 12:30:09;;;;;;;2.70;2.20;;;22.00;90.70;;;;;;6201244;28;20059;-75
2021/07/14 12:33:12;;;;;;;2.60;2.13;;;22.10;90.20;;;;;;6201425;28;20109;-75
2021/07/14 12:36:16;;;;;;;12.05;2.65;;;22.10;89.40;;;;;;6200871;28;20042;-74
2021/07/14 12:39:23;;;;;;;1.85;1.75;;;22.10;87.60;;;;;;6200999;28;20701;-75
2021/07/14 12:42:26;;;;;;;2.42;1.70;;;22.10;84.30;;;;;;6201047;28;20042;-75
2021/07/14 12:45:30;;;;;;;2.25;1.60;;;22.10;83.70;;;;;;6201191;28;20050;-75
2021/07/14 12:48:32;;;;;;;3.85;1.90;;;22.00;83.10;;;;;;6200537;28;20048;-74
2021/07/14 12:51:34;;;;;;;1.65;1.40;;;22.00;83.00;;;;;;6201083;28;20070;-74
2021/07/14 12:54:37;;;;;;;4.30;2.33;;;22.10;84.80;;;;;;6200885;28;20093;-74
2021/07/14 12:57:40;;;;;;;2.08;1.95;;;22.10;85.10;;;;;;6196455;28;20510;-74
2021/07/14 13:00:44;;;;;;;2.28;1.80;;;22.20;83.60;;;;;;6180100;28;20435;-74
2021/07/14 13:03:46;;;;;;;2.50;2.00;;;22.30;82.80;;;;;;6176380;28;20058;-75
2021/07/14 13:06:48;;;;;;;3.92;2.03;;;22.40;82.60;;;;;;6176612;28;20046;-74
2021/07/14 13:09:54;;;;;;;3.72;1.60;;;22.40;82.10;;;;;;6176844;28;20101;-75
2021/07/14 13:12:58;;;;;;;2.45;1.83;;;22.50;81.60;;;;;;6181291;28;20508;-75
2021/07/14 13:16:03;;;;;;;5.68;1.67;;;22.70;79.50;;;;;;6199955;28;20053;-74
2021/07/14 13:19:16;;;;;;;8.43;2.97;;;22.70;78.00;;;;;;6199152;28;20046;-75
2021/07/14 13:22:18;;;;;;;4.85;1.92;;;22.80;77.90;;;;;;6200365;28;20119;-75
2021/07/14 13:25:20;;;;;;;2.20;1.42;;;23.00;78.10;;;;;;6200473;28;20090;-75
2021/07/14 13:28:25;;;;;;;2.35;1.70;;;23.20;77.10;;;;;;6200100;28;20120;-75
2021/07/14 13:31:29;;;;;;;1.80;1.48;;;23.40;75.20;;;;;;6201841;28;20051;-77
2021/07/14 13:34:30;;;;;;;1.88;1.35;;;23.40;72.20;;;;;;6203284;28;20042;-78
2021/07/14 13:37:32;;;;;;;5.30;3.47;;;23.40;72.40;;;;;;6203943;28;20058;-77
2021/07/14 13:40:34;;;;;;;5.63;1.70;;;23.40;73.10;;;;;;6199534;28;20077;-76
2021/07/14 13:43:42;;;;;;;2.20;1.88;;;23.50;72.90;;;;;;6200914;28;20057;-76
2021/07/14 13:46:46;;;;;;;2.13;1.30;;;23.50;73.00;;;;;;6200898;28;20169;-75
2021/07/14 13:49:48;;;;;;;1.45;1.35;;;23.70;71.30;;;;;;6200576;28;20051;-77
2021/07/14 13:52:57;;;;;;;3.10;1.42;;;23.90;72.00;;;;;;6200576;28;20050;-76
2021/07/14 13:56:06;;;;;;;2.38;1.42;;;24.00;71.70;;;;;;6200432;28;20123;-77
2021/07/14 13:59:26;;;;;;;2.25;1.98;;;24.00;71.00;;;;;;6193148;28;20190;-77
2021/07/14 14:02:32;;;;;;;1.40;1.20;;;24.10;70.30;;;;;;6181128;28;20050;-78
2021/07/14 14:05:33;;;;;;;1.70;1.45;;;24.30;70.80;;;;;;6182744;28;20051;-76
2021/07/14 14:08:36;;;;;;;3.63;1.65;;;24.50;69.90;;;;;;6198118;23;20111;-75
2021/07/14 14:11:38;;;;;;;1.80;1.70;;;24.70;69.60;;;;;;6222990;28;20573;-75
2021/07/14 14:14:41;;;;;;;2.40;1.55;;;24.60;67.90;;;;;;6212102;28;20125;-76
2021/07/14 14:17:44;;;;;;;1.98;1.65;;;24.50;68.40;;;;;;6200215;28;20053;-75
2021/07/14 14:20:45;;;;;;;2.53;1.70;;;24.30;69.60;;;;;;6199126;28;20050;-76
2021/07/14 14:23:47;;;;;;;2.17;1.50;;;24.10;70.10;;;;;;6199311;28;20121;-75
2021/07/14 14:26:52;;;;;;;2.38;1.67;;;24.00;70.40;;;;;;6199202;28;20120;-75
2021/07/14 14:29:55;;;;;;;2.30;1.75;;;23.70;70.70;;;;;;6198632;28;20046;-75
2021/07/14 14:32:58;;;;;;;5.85;1.70;;;23.50;72.00;;;;;;6198165;28;20050;-75
2021/07/14 14:36:00;;;;;;;1.88;1.67;;;23.30;72.10;;;;;;6198875;28;20519;-75
2021/07/14 14:39:02;;;;;;;1.65;1.55;;;23.20;72.50;;;;;;6199256;28;20068;-77
2021/07/14 14:42:04;;;;;;;1.33;1.17;;;23.10;72.90;;;;;;6199274;28;20141;-75
2021/07/14 14:45:08;;;;;;;5.30;1.42;;;23.10;72.60;;;;;;6199377;28;20539;-75
2021/07/14 14:48:10;;;;;;;1.77;1.67;;;23.20;72.50;;;;;;6198151;28;20121;-76
2021/07/14 14:51:12;;;;;;;1.90;1.67;;;23.10;72.50;;;;;;6198702;28;20050;-75
2021/07/14 14:54:14;;;;;;;1.60;1.50;;;23.10;72.70;;;;;;6198401;28;20057;-76
2021/07/14 14:57:16;;;;;;;1.20;1.15;;;23.10;73.10;;;;;;6198507;28;20652;-76
2021/07/14 15:00:21;;;;;;;4.28;1.75;;;23.10;73.10;;;;;;6203438;28;20051;-76
2021/07/14 15:03:23;;;;;;;5.95;2.00;;;23.00;72.80;;;;;;6247596;28;20513;-75
2021/07/14 15:06:25;;;;;;;3.00;1.30;;;22.80;73.60;;;;;;6246813;28;20105;-76
2021/07/14 15:09:26;;;;;;;1.70;1.60;;;22.70;74.00;;;;;;6247721;28;20049;-75
2021/07/14 15:12:28;;;;;;;0.98;0.90;;;22.70;74.40;;;;;;6246990;28;20127;-75
2021/07/14 15:15:32;;;;;;;1.63;1.17;;;22.60;74.60;;;;;;6246786;28;20077;-75
2021/07/14 15:18:39;;;;;;;1.90;1.27;;;22.50;76.30;;;;;;6246401;28;20138;-76
2021/07/14 15:21:41;;;;;;;2.45;1.70;;;22.30;76.00;;;;;;6235326;28;20053;-75
2021/07/14 15:24:45;;;;;;;1.45;1.33;;;22.20;76.90;;;;;;6222036;28;20073;-75
2021/07/14 15:31:09;;;;;;;1.23;1.13;;;21.90;78.30;;;;;;6221245;28;20042;-75
2021/07/14 15:34:10;;;;;;;0.88;0.85;;;21.60;81.30;;;;;;6222973;28;20144;-76
2021/07/14 15:37:13;;;;;;;1.65;0.90;;;21.40;83.50;;;;;;6222953;28;20058;-75
2021/07/14 15:40:15;;;;;;;1.42;1.10;;;21.30;84.70;;;;;;6204638;28;20047;-77
2021/07/14 15:43:17;;;;;;;0.88;0.88;;;21.20;85.80;;;;;;6225255;28;20482;-76
2021/07/14 15:46:22;;;;;;;1.05;0.93;;;21.00;87.20;;;;;;6227053;28;20053;-76
2021/07/14 15:49:24;;;;;;;0.90;0.90;;;20.90;87.70;;;;;;6225334;28;20049;-77
2021/07/14 15:52:26;;;;;;;1.02;0.95;;;20.70;88.30;;;;;;6226189;28;20518;-77
2021/07/14 15:55:28;;;;;;;0.60;0.60;;;20.60;89.60;;;;;;6223339;28;20081;-77
2021/07/14 15:58:30;;;;;;;1.08;1.00;;;20.40;90.40;;;;;;6223118;28;20411;-77
2021/07/14 16:01:33;;;;;;;2.53;0.80;;;20.30;91.30;;;;;;6222581;28;20073;-77